Saturday, April 25, 2015, 9:11 PM EDT

KFYJ, West Point, Middle Peninsula Regional Airport

Location: Shacklefords, VA, United States Lat: 37.521
Local Time: 9:11 PM EDT ( 1:11 GMT) Lon: -76.764
Time Zone: US/Eastern Elev: 22 ft

Show me the last for .
Show Decoded

2015-04-25 20:55 METAR KFYJ 260055Z AUTO 09007KT 4SM BKN003 BKN013 OVC046 08/07 A2971 RMK AO2
                 P0005 T00820070 =
2015-04-25 20:35 METAR KFYJ 260035Z AUTO 11005KT 3SM SCT003 BKN018 OVC046 09/07 A2973 RMK AO2
                 P0002 T00850072 =
2015-04-25 20:15 METAR KFYJ 260015Z AUTO 01003KT 4SM SCT003 BKN024 OVC039 09/07 A2977 RMK AO2
                 P0001 T00850072 =
2015-04-25 19:55 METAR KFYJ 252355Z AUTO 07004KT 3SM SCT003 BKN033 OVC046 09/07 A2976 RMK AO2
                 P0002 60035 T00850072 10111 20085 =
2015-04-25 19:35 METAR KFYJ 252335Z AUTO 08003KT 5SM BKN034 OVC048 09/07 A2976 RMK AO2 P0002
                 T00850071 =
2015-04-25 19:15 METAR KFYJ 252315Z AUTO 08004KT 3SM SCT022 OVC034 09/07 A2978 RMK AO2 P0002
                 T00850071 =
2015-04-25 18:55 METAR KFYJ 252255Z AUTO 09003KT 4SM BKN022 OVC028 09/07 A2979 RMK AO2 P0009
                 T00850070 =
2015-04-25 18:35 METAR KFYJ 252235Z AUTO 09004KT 5SM OVC026 09/07 A2978 RMK AO2 P0005 T00860070 =
2015-04-25 18:15 METAR KFYJ 252215Z AUTO 10007KT 4SM SCT016 SCT021 OVC026 09/07 A2980 RMK AO2
                 P0002 T00880072 =
2015-04-25 17:55 METAR KFYJ 252155Z AUTO 08007KT 5SM SCT006 BKN016 OVC028 09/08 A2980 RMK AO2
                 P0006 T00920076 =
2015-04-25 17:35 METAR KFYJ 252135Z AUTO 09005KT 4SM SCT004 BKN021 OVC027 09/08 A2981 RMK AO2
                 P0004 T00930076 =
2015-04-25 17:15 METAR KFYJ 252115Z AUTO 00000KT 4SM SCT021 BKN027 OVC032 09/08 A2981 RMK AO2
                 P0001 T00930075 =
2015-04-25 16:35 METAR KFYJ 252035Z AUTO 00000KT 7SM SCT018 BKN025 OVC034 09/07 A2982 RMK AO2
                 P0004 T00930067 =
2015-04-25 16:15 METAR KFYJ 252015Z AUTO 07004KT 4SM SCT021 SCT035 OVC048 09/06 A2983 RMK AO2
                 P0002 T00930064 =
2015-04-25 15:55 METAR KFYJ 251955Z AUTO 00000KT 5SM OVC050 10/06 A2985 RMK AO2 P0006 T00950061 =
2015-04-25 15:35 METAR KFYJ 251935Z AUTO 00000KT 5SM SCT037 OVC050 10/06 A2986 RMK AO2 P0004
                 T00960060 =
2015-04-25 15:15 METAR KFYJ 251915Z AUTO 00000KT 5SM OVC050 10/06 A2987 RMK AO2 P0002 T00970058 =
2015-04-25 14:55 METAR KFYJ 251855Z AUTO 00000KT 5SM SCT040 OVC050 10/06 A2988 RMK AO2 P0005
                 T01000059 =
2015-04-25 14:35 METAR KFYJ 251835Z AUTO 00000KT 10SM SCT030 OVC040 10/05 A2989 RMK AO2 P0004
                 T01000051 =
2015-04-25 14:15 METAR KFYJ 251815Z AUTO 00000KT 5SM BKN034 OVC044 11/05 A2990 RMK AO2 P0002
                 T01050052 =
2015-04-25 13:55 METAR KFYJ 251755Z AUTO 00000KT 5SM SCT034 SCT041 OVC065 11/07 A2991 RMK AO2
                 P0002 60003 T01130066 10125 20092 =
2015-04-25 13:35 METAR KFYJ 251735Z AUTO 09003KT 10SM OVC065 11/03 A2991 RMK AO2 T01130030 =
2015-04-25 13:15 METAR KFYJ 251715Z AUTO 08003KT 10SM OVC065 12/01 A2991 RMK AO2 T01160012 =
2015-04-25 12:55 METAR KFYJ 251655Z AUTO 10004KT 10SM SCT037 OVC075 12/03 A2991 RMK AO2 P0001
                 T01180028 =
2015-04-25 12:35 METAR KFYJ 251635Z AUTO 10003KT 10SM SCT024 BKN034 OVC085 12/03 A2992 RMK AO2
                 T01200031 =
2015-04-25 12:15 METAR KFYJ 251615Z AUTO 14003KT 10SM SCT034 SCT040 BKN085 12/03 A2993 RMK AO2
                 T01230032 =
2015-04-25 11:55 METAR KFYJ 251555Z AUTO 11003KT 10SM SCT031 SCT040 BKN080 12/04 A2994 RMK AO2
                 T01210039 =
2015-04-25 11:35 METAR KFYJ 251535Z AUTO 13003KT 10SM SCT026 SCT036 BKN080 12/05 A2995 RMK AO2
                 T01200046 =
2015-04-25 11:15 METAR KFYJ 251515Z AUTO 00000KT 10SM SCT034 SCT044 BKN060 12/04 A2997 RMK AO2
                 T01170037 =
2015-04-25 10:55 METAR KFYJ 251455Z AUTO 00000KT 10SM SCT032 BKN049 OVC060 12/03 A2996 RMK AO2
                 T01160033 =
2015-04-25 10:35 METAR KFYJ 251435Z AUTO 11003KT 10SM SCT044 BKN050 OVC070 12/03 A2999 RMK AO2
                 T01170032 =
2015-04-25 10:15 METAR KFYJ 251415Z AUTO 00000KT 10SM SCT046 SCT050 OVC060 12/03 A3000 RMK AO2
                 T01180027 =
2015-04-25 09:55 METAR KFYJ 251355Z AUTO 00000KT 10SM SCT060 BKN070 OVC090 12/02 A3000 RMK AO2
                 T01170020 =
2015-04-25 09:35 METAR KFYJ 251335Z AUTO 00000KT 10SM OVC090 11/02 A2999 RMK AO2 T01130017 =
2015-04-25 09:15 METAR KFYJ 251315Z AUTO 01003KT 10SM OVC100 11/02 A2998 RMK AO2 T01090024 =
2015-04-25 08:55 METAR KFYJ 251255Z AUTO 03003KT 10SM OVC100 11/02 A2997 RMK AO2 T01050024 =
2015-04-25 08:35 METAR KFYJ 251235Z AUTO 06005KT 10SM OVC100 10/03 A2996 RMK AO2 T01020026 =
2015-04-25 08:15 METAR KFYJ 251215Z AUTO 03004KT 10SM OVC100 10/02 A2996 RMK AO2 T00980019 =
2015-04-25 07:55 METAR KFYJ 251155Z AUTO 04004KT 10SM OVC100 09/02 A2996 RMK AO2 T00910023 10091
                 20027 =
2015-04-25 07:35 METAR KFYJ 251135Z AUTO 00000KT 10SM OVC110 09/03 A2996 RMK AO2 T00860027 =
2015-04-25 07:15 METAR KFYJ 251115Z AUTO 01003KT 10SM BKN110 06/04 A2998 RMK AO2 T00600042 =
2015-04-25 06:55 METAR KFYJ 251055Z AUTO 00000KT 10SM SCT110 05/03 A2998 RMK AO2 T00460028 =
2015-04-25 06:35 METAR KFYJ 251035Z AUTO 00000KT 10SM BKN100 05/03 A2998 RMK AO2 T00450026 =
2015-04-25 06:15 METAR KFYJ 251015Z AUTO 00000KT 10SM SCT100 04/02 A2997 RMK AO2 T00380017 =
2015-04-25 05:55 METAR KFYJ 250955Z AUTO 00000KT 10SM CLR 05/03 A2996 RMK AO2 T00480027 =
2015-04-25 05:35 METAR KFYJ 250935Z AUTO 00000KT 10SM CLR 05/02 A2996 RMK AO2 T00450024 =
2015-04-25 05:15 METAR KFYJ 250915Z AUTO 00000KT 10SM CLR 04/02 A2995 RMK AO2 T00400017 =
2015-04-25 04:55 METAR KFYJ 250855Z AUTO 00000KT 10SM CLR 05/02 A2995 RMK AO2 T00470023 =
2015-04-25 04:35 METAR KFYJ 250835Z AUTO 00000KT 10SM SCT110 05/03 A2996 RMK AO2 T00500025 =
2015-04-25 04:15 METAR KFYJ 250815Z AUTO 00000KT 10SM BKN110 06/03 A2996 RMK AO2 T00550028 =
2015-04-25 03:55 METAR KFYJ 250755Z AUTO 00000KT 10SM OVC110 05/03 A2996 RMK AO2 T00470027 =
2015-04-25 03:35 METAR KFYJ 250735Z AUTO 00000KT 10SM OVC110 05/03 A2995 RMK AO2 T00470027 =
2015-04-25 03:15 METAR KFYJ 250715Z AUTO 00000KT 10SM BKN110 04/02 A2997 RMK AO2 T00380020 =
2015-04-25 02:55 METAR KFYJ 250655Z AUTO 00000KT 10SM SCT120 03/00 A2996 RMK AO2 T00270004 =
2015-04-25 02:35 METAR KFYJ 250635Z AUTO 00000KT 10SM CLR 04/01 A2998 RMK AO2 T00370014 =
2015-04-25 02:15 METAR KFYJ 250615Z AUTO 00000KT 10SM CLR 03/01 A2998 RMK AO2 T00340011 =
2015-04-25 01:55 METAR KFYJ 250555Z AUTO 00000KT 10SM CLR 04/01 A2998 RMK AO2 T00360009 10133
                 20030 401850011 =
2015-04-25 01:35 METAR KFYJ 250535Z AUTO 00000KT 10SM CLR 03/01 A2998 RMK AO2 T00320008 =
2015-04-25 01:15 METAR KFYJ 250515Z AUTO 00000KT 10SM CLR 04/01 A2998 RMK AO2 T00370010 =
2015-04-25 00:55 METAR KFYJ 250455Z AUTO 00000KT 10SM CLR 05/01 A2999 RMK AO2 T00490010 =
2015-04-25 00:35 METAR KFYJ 250435Z AUTO 00000KT 10SM CLR 04/01 A2998 RMK AO2 T00410012 =
2015-04-25 00:15 METAR KFYJ 250415Z AUTO 00000KT 10SM CLR 07/02 A2998 RMK AO2 T00650017 =
2015-04-24 23:55 METAR KFYJ 250355Z AUTO 00000KT 10SM CLR 04/01 A2999 RMK AO2 T00410007 =
2015-04-24 23:35 METAR KFYJ 250335Z AUTO 00000KT 10SM CLR 07/02 A2998 RMK AO2 T00700022 =
2015-04-24 23:15 METAR KFYJ 250315Z AUTO 00000KT 10SM CLR 05/01 A2999 RMK AO2 T00500011 =
2015-04-24 22:55 METAR KFYJ 250255Z AUTO 00000KT 10SM CLR 06/01 A2998 RMK AO2 T00610006 =
2015-04-24 22:35 METAR KFYJ 250235Z AUTO 00000KT 10SM CLR 07/01 A2997 RMK AO2 T00720007 =
2015-04-24 22:15 METAR KFYJ 250215Z AUTO 07004KT 10SM CLR 07/01 A2997 RMK AO2 T00710008 =
2015-04-24 21:35 METAR KFYJ 250135Z AUTO 00000KT 10SM CLR 10/M01 A2997 RMK AO2 T00971006 =
2015-04-24 21:15 METAR KFYJ 250115Z AUTO 07004KT 10SM CLR 08/00 A2997 RMK AO2 T00780004 =

Support USWX by starting your Amazon purchase here.